createdAt,value
2024-02-01T00:01:47.416Z,20.2
2024-02-01T00:04:31.747Z,20.2
2024-02-01T00:05:49.051Z,20.2
2024-02-01T00:07:16.390Z,20.2
2024-02-01T00:10:01.020Z,20.2
2024-02-01T00:12:45.679Z,20.2
2024-02-01T00:15:30.311Z,20.1
2024-02-01T00:18:14.941Z,20.1
2024-02-01T00:20:59.614Z,20.1
2024-02-01T00:23:44.256Z,20.1
2024-02-01T00:26:29.199Z,20.1
2024-02-01T00:29:13.547Z,20.2
2024-02-01T00:31:58.185Z,20.1
2024-02-01T00:33:15.478Z,20.1
2024-02-01T00:34:42.799Z,20.2
2024-02-01T00:37:27.480Z,20.2
2024-02-01T00:40:12.130Z,20.1
2024-02-01T00:42:56.757Z,20.1
2024-02-01T00:45:41.372Z,20.1
2024-02-01T00:48:26.044Z,20.1
2024-02-01T00:51:10.657Z,20.1
2024-02-01T00:53:55.315Z,20.1
2024-02-01T00:56:39.969Z,20.1
2024-02-01T00:59:24.566Z,20.1
2024-02-01T01:00:41.883Z,20.1
2024-02-01T01:04:53.890Z,20.1
2024-02-01T01:07:38.527Z,20.1
2024-02-01T01:10:23.139Z,20.1
2024-02-01T01:13:07.786Z,20.1
2024-02-01T01:15:52.431Z,20.1
2024-02-01T01:18:37.091Z,20.1
2024-02-01T01:21:21.713Z,20.1
2024-02-01T01:24:06.388Z,20.1
2024-02-01T01:26:50.980Z,20.1
2024-02-01T01:28:08.311Z,20.1
2024-02-01T01:29:35.626Z,20.1
2024-02-01T01:32:20.297Z,20.1
2024-02-01T01:35:05.329Z,20.1
2024-02-01T01:37:49.591Z,20.1
2024-02-01T01:40:34.236Z,20.1
2024-02-01T01:43:18.843Z,20.1
2024-02-01T01:46:03.511Z,20.1
2024-02-01T01:48:48.147Z,20.1
2024-02-01T01:51:33.144Z,20.1
2024-02-01T01:54:17.429Z,20.1
2024-02-01T01:55:35.084Z,20.1
2024-02-01T01:57:02.082Z,20.1
2024-02-01T02:02:31.368Z,20.1
2024-02-01T02:05:15.995Z,20.1
2024-02-01T02:10:45.297Z,20.1
2024-02-01T02:13:30.323Z,20.1
2024-02-01T02:16:14.539Z,20.1
2024-02-01T02:18:59.219Z,20.1
2024-02-01T02:23:01.550Z,20.1
2024-02-01T02:27:13.451Z,20.1
2024-02-01T02:29:58.104Z,20.1
2024-02-01T02:32:42.380Z,20.1
2024-02-01T02:35:27.054Z,20.1
2024-02-01T02:38:11.710Z,20.1
2024-02-01T02:40:56.314Z,20.1
2024-02-01T02:43:40.984Z,20.1
2024-02-01T02:46:25.629Z,20.1
2024-02-01T02:50:27.651Z,20.1
2024-02-01T02:51:54.913Z,20.1
2024-02-01T03:00:08.839Z,20.1
2024-02-01T03:13:52.011Z,20
2024-02-01T03:16:36.681Z,20.1
2024-02-01T03:17:54.048Z,20
2024-02-01T03:19:21.325Z,20.1
2024-02-01T03:22:05.927Z,20.1
2024-02-01T03:24:50.605Z,20.1
2024-02-01T03:27:35.216Z,20
2024-02-01T03:30:19.866Z,20.1
2024-02-01T03:33:04.526Z,20
2024-02-01T03:35:49.460Z,20
2024-02-01T03:38:33.780Z,20
2024-02-01T03:41:18.455Z,20
2024-02-01T03:44:03.057Z,20
2024-02-01T03:45:20.471Z,20
2024-02-01T03:49:32.377Z,20
2024-02-01T03:52:16.980Z,20
2024-02-01T03:55:01.622Z,20
2024-02-01T03:57:46.306Z,20
2024-02-01T04:00:30.901Z,20
2024-02-01T04:03:15.550Z,20
2024-02-01T04:08:44.827Z,20
2024-02-01T04:12:47.242Z,20
2024-02-01T04:14:14.152Z,20
2024-02-01T04:16:58.749Z,20
2024-02-01T04:19:43.391Z,20
2024-02-01T04:22:28.076Z,20
2024-02-01T04:25:12.710Z,20
2024-02-01T04:27:57.699Z,20
2024-02-01T04:30:42.000Z,20
2024-02-01T04:33:26.643Z,20
2024-02-01T04:36:11.236Z,20
2024-02-01T04:40:13.384Z,20
2024-02-01T04:41:40.875Z,20
2024-02-01T04:44:25.166Z,20
2024-02-01T04:47:09.853Z,20
2024-02-01T04:49:54.457Z,20
2024-02-01T04:52:39.088Z,20
2024-02-01T04:55:23.774Z,20
2024-02-01T05:00:53.027Z,20
2024-02-01T05:03:37.982Z,20
2024-02-01T05:06:22.340Z,20
2024-02-01T05:07:39.769Z,20
2024-02-01T05:09:06.948Z,20
2024-02-01T05:11:51.628Z,20
2024-02-01T05:14:36.265Z,20
2024-02-01T05:20:05.552Z,20
2024-02-01T05:22:50.182Z,19.9
2024-02-01T05:25:34.796Z,20
2024-02-01T05:28:19.474Z,19.9
2024-02-01T05:31:04.119Z,19.9
2024-02-01T05:35:06.212Z,20
2024-02-01T05:36:33.387Z,20
2024-02-01T05:42:02.647Z,20
2024-02-01T05:44:47.613Z,20
2024-02-01T05:47:31.954Z,19.9
2024-02-01T05:50:16.565Z,19.9
2024-02-01T05:53:01.234Z,19.9
2024-02-01T05:55:45.846Z,20
2024-02-01T05:58:30.528Z,19.9
2024-02-01T06:01:15.000Z,20
2024-02-01T06:02:33.006Z,20
2024-02-01T06:03:59.776Z,20
2024-02-01T06:06:44.411Z,20
2024-02-01T06:09:29.393Z,19.9
2024-02-01T06:14:58.666Z,19.9
2024-02-01T06:17:43.019Z,19.9
2024-02-01T06:20:27.648Z,19.9
2024-02-01T06:23:12.633Z,19.9
2024-02-01T06:25:56.940Z,19.9
2024-02-01T06:29:59.069Z,20
2024-02-01T06:31:28.244Z,20
2024-02-01T06:34:10.859Z,20
2024-02-01T06:36:55.927Z,20
2024-02-01T06:39:40.151Z,20
2024-02-01T06:42:24.793Z,19.9
2024-02-01T06:45:09.428Z,19.8
2024-02-01T06:47:54.374Z,19.8
2024-02-01T06:50:38.702Z,19.8
2024-02-01T06:53:23.351Z,19.8
2024-02-01T06:57:25.532Z,19.9
2024-02-01T07:01:37.274Z,19.9
2024-02-01T07:04:22.236Z,20
2024-02-01T07:07:06.856Z,20
2024-02-01T07:09:51.209Z,20.1
2024-02-01T07:12:36.162Z,20.1
2024-02-01T07:15:21.061Z,20.2
2024-02-01T07:18:05.116Z,20.2
2024-02-01T07:20:50.108Z,20.2
2024-02-01T07:23:34.702Z,20.2
2024-02-01T07:24:52.298Z,20.2
2024-02-01T07:29:04.021Z,20.2
2024-02-01T07:31:48.658Z,20.2
2024-02-01T07:37:17.624Z,20.2
2024-02-01T07:40:02.555Z,20.3
2024-02-01T07:42:46.904Z,20.3
2024-02-01T07:48:16.745Z,20.3
2024-02-01T07:52:18.410Z,20.4
2024-02-01T07:53:45.474Z,20.4
2024-02-01T07:56:30.407Z,20.4
2024-02-01T07:59:14.759Z,20.4
2024-02-01T08:01:59.753Z,20.3
2024-02-01T08:04:44.332Z,20.3
2024-02-01T08:18:27.191Z,20.1
2024-02-01T08:19:45.162Z,20.2
2024-02-01T08:21:11.878Z,20.2
2024-02-01T08:23:56.955Z,20.3
2024-02-01T08:26:41.128Z,20.4
2024-02-01T08:29:25.808Z,20.5
2024-02-01T08:32:10.409Z,20.5
2024-02-01T08:34:55.038Z,20.5
2024-02-01T08:37:39.719Z,20.5
2024-02-01T08:43:08.973Z,20.6
2024-02-01T08:45:53.952Z,20.7
2024-02-01T08:47:11.593Z,20.7
2024-02-01T08:54:07.583Z,20.8
2024-02-01T09:10:35.735Z,20.8
2024-02-01T09:14:37.699Z,20.9
2024-02-01T09:16:05.024Z,20.9
2024-02-01T09:18:49.319Z,20.9
2024-02-01T09:27:03.275Z,21
2024-02-01T09:32:32.882Z,21.2
2024-02-01T09:35:17.161Z,21.2
2024-02-01T09:38:01.810Z,21.2
2024-02-01T09:40:46.432Z,21.3
2024-02-01T09:42:04.084Z,21.2
2024-02-01T09:43:31.078Z,21.3
2024-02-01T09:46:15.722Z,21.3
2024-02-01T09:49:00.418Z,21.3
2024-02-01T09:51:45.013Z,21.4
2024-02-01T09:54:29.650Z,21.4
2024-02-01T09:59:59.289Z,21.5
2024-02-01T10:02:43.627Z,21.5
2024-02-01T10:08:12.900Z,21.5
2024-02-01T10:09:30.571Z,21.5
2024-02-01T10:10:57.551Z,21.5
2024-02-01T10:16:26.821Z,21.5
2024-02-01T10:19:11.465Z,21.5
2024-02-01T10:21:56.118Z,21.5
2024-02-01T10:24:40.745Z,21.5
2024-02-01T10:30:10.324Z,21.5
2024-02-01T10:32:54.679Z,21.6
2024-02-01T10:38:24.258Z,21.6
2024-02-01T10:41:08.606Z,21.6
2024-02-01T10:49:22.481Z,21.6
2024-02-01T11:04:23.787Z,21.4
2024-02-01T11:05:50.378Z,21.4
2024-02-01T11:08:35.000Z,21.4
2024-02-01T11:16:48.948Z,21.3
2024-02-01T11:19:33.542Z,21.3
2024-02-01T11:22:18.173Z,21.2
2024-02-01T11:27:47.462Z,21.2
2024-02-01T11:31:49.822Z,21.2
2024-02-01T11:36:01.380Z,21.1
2024-02-01T11:41:30.670Z,21.1
2024-02-01T11:44:15.317Z,21
2024-02-01T11:46:59.959Z,21
2024-02-01T11:52:29.235Z,21
2024-02-01T11:57:58.526Z,21
2024-02-01T11:59:16.627Z,21
2024-02-01T12:00:43.156Z,21
2024-02-01T12:08:57.143Z,21
2024-02-01T12:17:11.401Z,20.9
2024-02-01T12:19:55.710Z,21
2024-02-01T12:25:25.276Z,21
2024-02-01T12:26:42.750Z,21
2024-02-01T12:28:09.637Z,21
2024-02-01T12:33:39.269Z,21
2024-02-01T12:36:23.561Z,21
2024-02-01T12:41:53.185Z,21
2024-02-01T12:44:37.486Z,21
2024-02-01T12:50:06.769Z,21
2024-02-01T12:52:51.411Z,21
2024-02-01T12:58:20.697Z,21
2024-02-01T13:01:05.633Z,21
2024-02-01T13:09:19.262Z,21.1
2024-02-01T13:12:03.895Z,21.1
2024-02-01T13:14:48.545Z,21.1
2024-02-01T13:17:33.187Z,21.1
2024-02-01T13:20:17.805Z,21
2024-02-01T13:21:35.917Z,21
2024-02-01T13:23:02.940Z,21
2024-02-01T13:25:47.113Z,21
2024-02-01T13:28:31.737Z,21
2024-02-01T13:31:16.396Z,21
2024-02-01T13:34:01.038Z,21
2024-02-01T13:36:45.662Z,21
2024-02-01T13:39:30.321Z,21
2024-02-01T13:42:14.946Z,21
2024-02-01T13:44:59.591Z,20.9
2024-02-01T13:47:44.245Z,20.9
2024-02-01T13:49:02.055Z,20.9
2024-02-01T13:50:28.888Z,20.9
2024-02-01T13:58:42.813Z,20.9
2024-02-01T14:01:27.457Z,20.9
2024-02-01T14:04:12.096Z,20.9
2024-02-01T14:06:57.029Z,20.9
2024-02-01T14:12:26.317Z,20.9
2024-02-01T14:15:10.661Z,20.9
2024-02-01T14:16:28.471Z,20.9
2024-02-01T14:20:39.946Z,21
2024-02-01T14:23:24.588Z,21
2024-02-01T14:28:54.493Z,21
2024-02-01T14:31:38.494Z,21
2024-02-01T14:37:08.093Z,21
2024-02-01T14:39:52.738Z,21
2024-02-01T14:43:54.922Z,21
2024-02-01T14:45:22.010Z,21
2024-02-01T14:48:06.362Z,21
2024-02-01T14:53:35.645Z,21
2024-02-01T14:56:20.263Z,21
2024-02-01T15:04:34.527Z,21
2024-02-01T15:10:03.843Z,21
2024-02-01T15:12:48.123Z,21.1
2024-02-01T15:21:02.042Z,21.1
2024-02-01T15:23:46.685Z,21.1
2024-02-01T15:26:31.326Z,21.1
2024-02-01T15:29:15.970Z,21.1
2024-02-01T15:34:45.553Z,21.1
2024-02-01T15:37:29.884Z,21.1
2024-02-01T15:38:48.084Z,21.1
2024-02-01T15:42:59.586Z,21.1
2024-02-01T15:45:43.818Z,21.1
2024-02-01T15:48:28.460Z,21.1
2024-02-01T15:51:13.421Z,21.1
2024-02-01T15:53:57.738Z,21.1
2024-02-01T15:56:42.388Z,21.1
2024-02-01T15:59:27.361Z,21
2024-02-01T16:02:11.664Z,21
2024-02-01T16:04:56.307Z,21
2024-02-01T16:06:14.195Z,21
2024-02-01T16:07:41.284Z,21
2024-02-01T16:10:25.606Z,21
2024-02-01T16:15:55.172Z,20.9
2024-02-01T16:18:39.530Z,20.9
2024-02-01T16:24:08.813Z,20.9
2024-02-01T16:32:22.737Z,20.8
2024-02-01T16:33:40.654Z,20.8
2024-02-01T16:35:07.358Z,20.8
2024-02-01T16:40:36.966Z,20.8
2024-02-01T16:43:21.305Z,20.8
2024-02-01T16:48:50.588Z,20.8
2024-02-01T16:51:35.229Z,20.8
2024-02-01T16:57:04.511Z,20.8
2024-02-01T17:01:07.087Z,20.8
2024-02-01T17:05:18.438Z,20.8
2024-02-01T17:16:17.004Z,20.8
2024-02-01T17:21:46.286Z,20.7
2024-02-01T17:30:00.213Z,20.7
2024-02-01T17:32:44.854Z,20.7
2024-02-01T17:38:14.137Z,20.6
2024-02-01T17:46:28.061Z,20.6
2024-02-01T17:49:12.678Z,20.6
2024-02-01T17:54:42.291Z,20.6
2024-02-01T17:55:59.954Z,20.6
2024-02-01T17:57:26.921Z,20.6
2024-02-01T18:05:40.988Z,20.6
2024-02-01T18:11:10.157Z,20.6
2024-02-01T18:13:54.479Z,20.6
2024-02-01T18:19:23.737Z,20.5
2024-02-01T18:22:08.728Z,20.5
2024-02-01T18:23:26.694Z,20.5
2024-02-01T18:27:37.979Z,20.5
2024-02-01T18:30:22.638Z,20.5
2024-02-01T18:35:51.614Z,20.5
2024-02-01T18:38:36.536Z,20.5
2024-02-01T18:44:05.537Z,20.5
2024-02-01T18:46:50.178Z,20.5
2024-02-01T18:49:35.156Z,20.5
2024-02-01T18:50:52.825Z,20.5
2024-02-01T18:52:19.463Z,20.5
2024-02-01T18:57:49.039Z,20.4
2024-02-01T19:00:33.387Z,20.5
2024-02-01T19:06:02.641Z,20.5
2024-02-01T19:08:47.312Z,20.5
2024-02-01T19:11:31.937Z,20.5
2024-02-01T19:17:01.235Z,20.4
2024-02-01T19:18:19.258Z,20.5
2024-02-01T19:19:45.878Z,20.4
2024-02-01T19:22:30.507Z,20.4
2024-02-01T19:25:15.161Z,20.4
2024-02-01T19:27:59.780Z,20.4
2024-02-01T19:30:44.847Z,20.4
2024-02-01T19:33:29.397Z,20.4
2024-02-01T19:36:13.727Z,20.4
2024-02-01T19:41:43.010Z,20.4
2024-02-01T19:44:27.625Z,20.4
2024-02-01T19:52:41.577Z,20.4
2024-02-01T19:55:26.222Z,20.4
2024-02-01T19:58:11.157Z,20.4
2024-02-01T20:00:55.502Z,20.4
2024-02-01T20:03:40.476Z,20.4
2024-02-01T20:09:09.434Z,20.4
2024-02-01T20:13:12.123Z,20.4
2024-02-01T20:14:38.710Z,20.4
2024-02-01T20:17:23.730Z,20.4
2024-02-01T20:22:52.634Z,20.4
2024-02-01T20:25:37.616Z,20.4
2024-02-01T20:31:06.883Z,20.3
2024-02-01T20:33:51.200Z,20.3
2024-02-01T20:36:36.205Z,20.3
2024-02-01T20:39:20.817Z,20.3
2024-02-01T20:40:38.566Z,20.3
2024-02-01T20:42:05.126Z,20.3
2024-02-01T20:44:50.067Z,20.3
2024-02-01T20:47:34.409Z,20.3
2024-02-01T20:50:19.359Z,20.3
2024-02-01T20:55:48.332Z,20.3
2024-02-01T20:58:32.974Z,20.3
2024-02-01T21:04:02.547Z,20.3
2024-02-01T21:08:04.992Z,20.3
2024-02-01T21:09:31.856Z,20.3
2024-02-01T21:12:16.183Z,20.3
2024-02-01T21:15:00.824Z,20.3
2024-02-01T21:17:45.781Z,20.3
2024-02-01T21:20:30.107Z,20.3
2024-02-01T21:23:14.749Z,20.3
2024-02-01T21:25:59.676Z,20.3
2024-02-01T21:28:44.032Z,20.3
2024-02-01T21:31:28.673Z,20.3
2024-02-01T21:35:31.426Z,20.3
2024-02-01T21:36:58.249Z,20.3
2024-02-01T21:39:42.891Z,20.3
2024-02-01T21:45:11.882Z,20.3
2024-02-01T21:47:56.807Z,20.2
2024-02-01T21:53:26.109Z,20.2
2024-02-01T21:56:10.447Z,20.2
2024-02-01T22:01:40.697Z,20.2
2024-02-01T22:04:24.715Z,20.3
2024-02-01T22:09:53.657Z,20.2
2024-02-01T22:12:38.297Z,20.2
2024-02-01T22:18:07.580Z,20.2
2024-02-01T22:20:52.224Z,20.2
2024-02-01T22:26:21.504Z,20.2
2024-02-01T22:29:06.151Z,20.2
2024-02-01T22:30:24.285Z,20.2
2024-02-01T22:31:50.788Z,20.2
2024-02-01T22:34:35.743Z,20.2
2024-02-01T22:37:20.071Z,20.2
2024-02-01T22:42:49.640Z,20.2
2024-02-01T22:45:33.998Z,20.2
2024-02-01T22:48:18.637Z,20.2
2024-02-01T22:51:03.569Z,20.2
2024-02-01T22:56:32.897Z,20.2
2024-02-01T22:57:50.721Z,20.2
2024-02-01T23:02:01.842Z,20.2
2024-02-01T23:07:31.128Z,20.2
2024-02-01T23:10:16.064Z,20.2
2024-02-01T23:15:45.052Z,20.2
2024-02-01T23:18:29.692Z,20.2
2024-02-01T23:21:14.329Z,20.2
2024-02-01T23:23:59.279Z,20.2
2024-02-01T23:25:17.159Z,20.2
2024-02-01T23:26:43.619Z,20.2
2024-02-01T23:29:28.254Z,20.2
2024-02-01T23:32:13.212Z,20.2
2024-02-01T23:34:57.541Z,20.2
2024-02-01T23:40:26.828Z,20.2
2024-02-01T23:43:11.463Z,20.2
2024-02-01T23:45:56.110Z,20.2
2024-02-01T23:48:40.752Z,20.2
2024-02-01T23:51:25.388Z,20.2
2024-02-01T23:52:43.592Z,20.2
2024-02-01T23:54:10.036Z,20.2
2024-02-01T23:59:39.617Z,20.2
